createdAt,value
2017-10-14T00:02:23.058Z,102248.00
2017-10-14T00:04:49.618Z,102234.84
2017-10-14T00:07:15.838Z,102235.30
2017-10-14T00:09:42.055Z,102242.33
2017-10-14T00:12:08.759Z,102237.48
2017-10-14T00:14:35.205Z,102238.80
2017-10-14T00:17:01.418Z,102239.70
2017-10-14T00:19:27.676Z,102243.20
2017-10-14T00:21:53.875Z,102247.57
2017-10-14T00:24:20.063Z,102244.08
2017-10-14T00:26:46.340Z,102245.39
2017-10-14T00:29:12.919Z,102248.02
2017-10-14T00:31:39.122Z,102245.37
2017-10-14T00:34:05.791Z,102247.13
2017-10-14T00:36:31.992Z,102251.95
2017-10-14T00:38:58.205Z,102253.70
2017-10-14T00:41:24.926Z,102253.70
2017-10-14T00:43:51.132Z,102246.25
2017-10-14T00:46:17.355Z,102250.22
2017-10-14T00:48:43.610Z,102245.39
2017-10-14T00:51:09.847Z,102241.02
2017-10-14T00:53:36.057Z,102242.73
2017-10-14T00:56:02.350Z,102239.26
2017-10-14T00:58:28.556Z,102237.92
2017-10-14T01:00:54.908Z,102234.89
2017-10-14T01:03:21.416Z,102238.38
2017-10-14T01:05:47.878Z,102235.75
2017-10-14T01:08:14.082Z,102231.78
2017-10-14T01:10:40.441Z,102240.97
2017-10-14T01:13:06.651Z,102234.39
2017-10-14T01:15:32.856Z,102240.97
2017-10-14T01:17:59.424Z,102248.00
2017-10-14T01:20:25.877Z,102246.25
2017-10-14T01:22:52.438Z,102239.26
2017-10-14T01:25:19.083Z,102239.26
2017-10-14T01:27:45.557Z,102240.11
2017-10-14T01:30:11.770Z,102243.20
2017-10-14T01:32:38.082Z,102236.16
2017-10-14T01:35:04.355Z,102230.05
2017-10-14T01:37:30.887Z,102233.53
2017-10-14T01:39:58.221Z,102236.18
2017-10-14T01:42:24.459Z,102228.27
2017-10-14T01:44:51.007Z,102240.99
2017-10-14T01:47:17.483Z,102235.31
2017-10-14T01:49:43.688Z,102238.38
2017-10-14T01:52:09.906Z,102241.88
2017-10-14T01:54:36.134Z,102245.37
2017-10-14T01:57:02.363Z,102246.25
2017-10-14T01:59:28.865Z,102242.77
2017-10-14T02:01:55.080Z,102244.05
2017-10-14T02:04:21.345Z,102242.73
2017-10-14T02:06:48.031Z,102237.50
2017-10-14T02:09:14.210Z,102235.75
2017-10-14T02:11:40.415Z,102234.89
2017-10-14T02:14:07.268Z,102237.92
2017-10-14T02:16:33.468Z,102237.50
2017-10-14T02:18:59.672Z,102239.25
2017-10-14T02:21:26.275Z,102243.19
2017-10-14T02:23:52.828Z,102243.19
2017-10-14T02:26:19.025Z,102241.02
2017-10-14T02:28:45.618Z,102242.78
2017-10-14T02:31:11.813Z,102238.39
2017-10-14T02:33:38.031Z,102245.84
2017-10-14T02:36:04.291Z,102243.19
2017-10-14T02:38:30.474Z,102235.77
2017-10-14T02:40:56.665Z,102242.78
2017-10-14T02:43:22.922Z,102233.53
2017-10-14T02:45:49.114Z,102228.73
2017-10-14T02:48:15.312Z,102231.79
2017-10-14T02:50:41.573Z,102227.40
2017-10-14T02:53:07.784Z,102225.22
2017-10-14T02:55:33.970Z,102226.09
2017-10-14T03:04:57.822Z,102223.05
2017-10-14T03:07:24.017Z,102216.48
2017-10-14T03:09:50.223Z,102222.59
2017-10-14T03:12:16.849Z,102225.23
2017-10-14T03:14:43.343Z,102226.99
2017-10-14T03:17:09.578Z,102227.40
2017-10-14T03:19:35.888Z,102224.80
2017-10-14T03:22:02.100Z,102229.17
2017-10-14T03:24:28.471Z,102226.98
2017-10-14T03:26:55.116Z,102225.23
2017-10-14T03:29:21.328Z,102224.36
2017-10-14T03:31:47.519Z,102221.73
2017-10-14T03:34:13.990Z,102222.59
2017-10-14T03:36:40.176Z,102227.85
2017-10-14T03:39:06.364Z,102226.13
2017-10-14T03:41:33.242Z,102221.30
2017-10-14T03:43:59.425Z,102222.19
2017-10-14T03:46:25.850Z,102215.59
2017-10-14T03:48:52.093Z,102214.70
2017-10-14T03:51:18.303Z,102223.05
2017-10-14T03:53:44.511Z,102224.81
2017-10-14T03:56:11.179Z,102231.39
2017-10-14T03:58:37.395Z,102228.73
2017-10-14T04:01:03.603Z,102225.22
2017-10-14T04:03:30.139Z,102224.80
2017-10-14T04:05:56.377Z,102225.24
2017-10-14T04:08:22.632Z,102216.02
2017-10-14T04:10:49.283Z,102220.41
2017-10-14T04:13:15.478Z,102226.55
2017-10-14T04:15:41.688Z,102226.56
2017-10-14T04:18:07.935Z,102228.77
2017-10-14T04:20:34.208Z,102227.86
2017-10-14T04:23:00.673Z,102230.95
2017-10-14T04:25:27.101Z,102225.27
2017-10-14T04:27:53.288Z,102227.02
2017-10-14T04:30:19.481Z,102219.99
2017-10-14T04:32:45.750Z,102223.06
2017-10-14T04:35:11.979Z,102228.75
2017-10-14T04:37:38.179Z,102223.06
2017-10-14T04:40:04.837Z,102231.83
2017-10-14T04:42:31.030Z,102228.34
2017-10-14T04:44:57.232Z,102232.27
2017-10-14T04:47:23.770Z,102234.44
2017-10-14T04:49:50.001Z,102231.81
2017-10-14T04:52:16.193Z,102234.03
2017-10-14T04:54:42.458Z,102239.75
2017-10-14T04:57:08.650Z,102238.88
2017-10-14T04:59:34.876Z,102234.47
2017-10-14T05:02:01.218Z,102240.17
2017-10-14T05:04:27.498Z,102231.83
2017-10-14T05:06:53.711Z,102232.29
2017-10-14T05:09:20.256Z,102236.23
2017-10-14T05:11:46.445Z,102229.68
2017-10-14T05:14:12.651Z,102231.84
2017-10-14T05:16:39.235Z,102232.73
2017-10-14T05:19:05.671Z,102228.81
2017-10-14T05:21:31.884Z,102231.86
2017-10-14T05:23:58.246Z,102229.22
2017-10-14T05:26:24.450Z,102230.11
2017-10-14T05:28:50.644Z,102232.30
2017-10-14T05:31:17.222Z,102231.00
2017-10-14T05:33:43.422Z,102234.94
2017-10-14T05:36:09.882Z,102236.23
2017-10-14T05:38:36.127Z,102234.92
2017-10-14T05:41:02.326Z,102236.70
2017-10-14T05:43:28.871Z,102236.26
2017-10-14T05:45:55.202Z,102236.70
2017-10-14T05:48:21.406Z,102242.37
2017-10-14T05:50:47.862Z,102243.69
2017-10-14T05:53:14.441Z,102245.45
2017-10-14T05:55:40.634Z,102254.66
2017-10-14T05:58:06.838Z,102253.75
2017-10-14T06:00:33.183Z,102250.70
2017-10-14T06:02:59.422Z,102254.66
2017-10-14T06:05:25.655Z,102253.80
2017-10-14T06:07:51.973Z,102255.11
2017-10-14T06:10:18.149Z,102259.94
2017-10-14T06:12:44.373Z,102255.53
2017-10-14T06:15:10.863Z,102262.11
2017-10-14T06:17:37.067Z,102259.47
2017-10-14T06:20:03.268Z,102255.97
2017-10-14T06:22:29.627Z,102259.91
2017-10-14T06:24:55.826Z,102263.83
2017-10-14T06:27:22.516Z,102266.50
2017-10-14T06:29:48.785Z,102266.49
2017-10-14T06:32:14.990Z,102263.87
2017-10-14T06:34:41.191Z,102264.73
2017-10-14T06:37:07.453Z,102273.95
2017-10-14T06:39:33.630Z,102272.62
2017-10-14T06:42:00.127Z,102272.17
2017-10-14T06:44:26.782Z,102275.69
2017-10-14T06:46:53.015Z,102279.63
2017-10-14T06:49:19.485Z,102280.08
2017-10-14T06:51:45.773Z,102284.88
2017-10-14T06:54:12.356Z,102287.51
2017-10-14T06:56:38.572Z,102287.06
2017-10-14T06:59:05.279Z,102280.50
2017-10-14T07:01:31.459Z,102279.63
2017-10-14T07:03:57.684Z,102282.27
2017-10-14T07:06:23.948Z,102284.44
2017-10-14T07:08:50.443Z,102278.73
2017-10-14T07:11:16.648Z,102299.37
2017-10-14T07:13:42.970Z,102313.84
2017-10-14T07:16:09.192Z,102316.00
2017-10-14T07:18:35.758Z,102312.52
2017-10-14T07:21:02.114Z,102316.47
2017-10-14T07:23:28.312Z,102319.53
2017-10-14T07:25:54.519Z,102319.53
2017-10-14T07:28:21.103Z,102319.95
2017-10-14T07:30:47.303Z,102317.77
2017-10-14T07:33:13.846Z,102323.92
2017-10-14T07:35:40.101Z,102325.23
2017-10-14T07:38:06.301Z,102329.62
2017-10-14T07:40:32.507Z,102326.11
2017-10-14T07:42:58.766Z,102321.73
2017-10-14T07:45:25.035Z,102327.87
2017-10-14T07:47:51.212Z,102332.26
2017-10-14T07:50:17.488Z,102323.92
2017-10-14T07:52:43.981Z,102337.08
2017-10-14T07:55:10.217Z,102335.76
2017-10-14T07:57:36.473Z,102337.06
2017-10-14T08:00:02.664Z,102335.31
2017-10-14T08:02:29.198Z,102338.81
2017-10-14T08:04:55.633Z,102337.92
2017-10-14T08:07:21.842Z,102343.20
2017-10-14T08:09:48.074Z,102345.41
2017-10-14T08:12:14.404Z,102351.98
2017-10-14T08:14:40.602Z,102351.54
2017-10-14T08:17:06.898Z,102358.56
2017-10-14T08:19:33.246Z,102356.35
2017-10-14T08:21:59.417Z,102357.66
2017-10-14T08:24:25.612Z,102365.56
2017-10-14T08:26:52.297Z,102363.36
2017-10-14T08:29:18.640Z,102369.92
2017-10-14T08:31:44.917Z,102373.00
2017-10-14T08:34:11.242Z,102377.36
2017-10-14T08:36:37.448Z,102375.63
2017-10-14T08:39:03.754Z,102384.83
2017-10-14T08:41:30.085Z,102379.56
2017-10-14T08:43:56.285Z,102382.64
2017-10-14T08:46:22.485Z,102380.44
2017-10-14T08:48:48.830Z,102388.33
2017-10-14T08:51:15.047Z,102389.22
2017-10-14T08:53:41.237Z,102387.89
2017-10-14T08:56:07.574Z,102387.00
2017-10-14T08:58:33.778Z,102388.30
2017-10-14T09:01:00.023Z,102390.50
2017-10-14T09:03:26.643Z,102391.38
2017-10-14T09:05:53.179Z,102391.81
2017-10-14T09:08:19.395Z,102386.10
2017-10-14T09:10:45.641Z,102386.53
2017-10-14T09:13:11.848Z,102384.37
2017-10-14T09:15:38.033Z,102380.84
2017-10-14T09:18:04.288Z,102389.19
2017-10-14T09:20:30.506Z,102383.03
2017-10-14T09:22:56.762Z,102388.73
2017-10-14T09:25:23.070Z,102380.42
2017-10-14T09:27:49.643Z,102390.92
2017-10-14T09:30:15.909Z,102387.44
2017-10-14T09:32:42.262Z,102390.92
2017-10-14T09:35:08.517Z,102383.03
2017-10-14T09:37:34.712Z,102392.69
2017-10-14T09:40:01.345Z,102397.06
2017-10-14T09:42:27.553Z,102390.50
2017-10-14T09:44:54.053Z,102385.23
2017-10-14T09:47:20.591Z,102386.98
2017-10-14T09:49:46.824Z,102385.66
2017-10-14T09:52:13.037Z,102390.92
2017-10-14T09:54:39.317Z,102393.98
2017-10-14T09:57:05.523Z,102390.50
2017-10-14T09:59:38.059Z,102396.19
2017-10-14T10:02:04.463Z,102392.23
2017-10-14T10:04:30.669Z,102403.20
2017-10-14T10:06:56.873Z,102400.13
2017-10-14T10:09:23.404Z,102403.63
2017-10-14T10:11:49.942Z,102400.56
2017-10-14T10:14:16.180Z,102399.67
2017-10-14T10:16:42.523Z,102405.81
2017-10-14T10:19:08.718Z,102400.99
2017-10-14T10:21:34.914Z,102404.05
2017-10-14T10:24:01.246Z,102407.16
2017-10-14T10:26:27.679Z,102404.08
2017-10-14T10:28:53.931Z,102398.36
2017-10-14T10:31:27.132Z,102397.02
2017-10-14T10:33:53.433Z,102400.55
2017-10-14T10:36:19.630Z,102402.29
2017-10-14T10:38:45.881Z,102405.39
2017-10-14T10:41:12.093Z,102405.83
2017-10-14T10:43:38.312Z,102411.97
2017-10-14T10:46:04.969Z,102408.91
2017-10-14T10:48:31.178Z,102410.66
2017-10-14T10:50:57.678Z,102410.66
2017-10-14T10:53:23.934Z,102414.60
2017-10-14T10:55:50.443Z,102405.39
2017-10-14T10:58:16.649Z,102411.09
2017-10-14T11:00:42.929Z,102405.81
2017-10-14T11:03:09.377Z,102398.80
2017-10-14T11:05:35.818Z,102401.83
2017-10-14T11:08:02.552Z,102399.22
2017-10-14T11:10:28.745Z,102401.83
2017-10-14T11:12:54.937Z,102400.52
2017-10-14T11:15:21.263Z,102403.16
2017-10-14T11:17:47.459Z,102399.21
2017-10-14T11:20:13.660Z,102404.89
2017-10-14T11:22:39.910Z,102414.11
2017-10-14T11:25:06.123Z,102409.27
2017-10-14T11:27:32.338Z,102401.81
2017-10-14T11:29:58.655Z,102393.45
2017-10-14T11:32:24.864Z,102396.53
2017-10-14T11:34:51.219Z,102397.41
2017-10-14T11:37:17.853Z,102406.59
2017-10-14T11:39:44.390Z,102407.91
2017-10-14T11:42:10.926Z,102402.63
2017-10-14T11:44:37.563Z,102404.83
2017-10-14T11:47:03.761Z,102396.45
2017-10-14T11:49:29.951Z,102397.35
2017-10-14T11:51:56.295Z,102399.14
2017-10-14T11:54:22.485Z,102396.03
2017-10-14T11:56:48.655Z,102395.62
2017-10-14T11:59:15.007Z,102391.66
2017-10-14T12:01:41.231Z,102402.63
2017-10-14T12:04:07.693Z,102400.42
2017-10-14T12:06:34.332Z,102395.16
2017-10-14T12:09:00.767Z,102399.09
2017-10-14T12:11:26.955Z,102399.59
2017-10-14T12:13:53.294Z,102395.23
2017-10-14T12:16:19.511Z,102396.95
2017-10-14T12:18:45.702Z,102391.27
2017-10-14T12:21:11.968Z,102398.71
2017-10-14T12:23:38.173Z,102394.32
2017-10-14T12:26:04.525Z,102393.87
2017-10-14T12:28:30.858Z,102406.59
2017-10-14T12:30:57.055Z,102399.13
2017-10-14T12:33:23.257Z,102399.57
2017-10-14T12:35:49.893Z,102399.15
2017-10-14T12:38:16.271Z,102392.56
2017-10-14T12:40:42.489Z,102397.41
2017-10-14T12:43:09.130Z,102389.50
2017-10-14T12:45:35.419Z,102383.83
2017-10-14T12:48:01.609Z,102379.41
2017-10-14T12:50:27.925Z,102382.06
2017-10-14T12:52:54.111Z,102368.45
2017-10-14T12:55:20.551Z,102378.08
2017-10-14T12:57:47.227Z,102381.14
2017-10-14T13:00:13.415Z,102383.33
2017-10-14T13:02:39.630Z,102384.67
2017-10-14T13:05:06.015Z,102382.44
2017-10-14T13:07:32.226Z,102374.55
2017-10-14T13:09:58.433Z,102378.09
2017-10-14T13:12:25.055Z,102385.55
2017-10-14T13:14:51.254Z,102387.73
2017-10-14T13:17:17.539Z,102379.41
2017-10-14T13:19:43.774Z,102379.44
2017-10-14T13:22:10.046Z,102385.16
2017-10-14T13:24:36.272Z,102372.41
2017-10-14T13:27:02.484Z,102378.13
2017-10-14T13:29:28.731Z,102387.77
2017-10-14T13:31:54.936Z,102393.91
2017-10-14T13:34:21.124Z,102396.13
2017-10-14T13:36:47.745Z,102408.85
2017-10-14T13:39:14.035Z,102405.33
2017-10-14T13:41:40.231Z,102402.28
2017-10-14T13:44:06.466Z,102401.41
2017-10-14T13:46:32.690Z,102396.58
2017-10-14T13:48:58.901Z,102408.88
2017-10-14T13:51:25.254Z,102409.31
2017-10-14T13:53:51.463Z,102411.95
2017-10-14T13:56:17.660Z,102405.39
2017-10-14T13:58:43.994Z,102413.30
2017-10-14T14:01:10.196Z,102423.82
2017-10-14T14:03:36.393Z,102427.79
2017-10-14T14:06:02.733Z,102430.87
2017-10-14T14:08:29.223Z,102433.50
2017-10-14T14:10:55.397Z,102433.93
2017-10-14T14:13:21.984Z,102430.41
2017-10-14T14:15:48.517Z,102435.66
2017-10-14T14:18:14.819Z,102439.19
2017-10-14T14:20:41.157Z,102437.88
2017-10-14T14:23:07.377Z,102437.45
2017-10-14T14:25:33.623Z,102446.66
2017-10-14T14:28:00.569Z,102440.06
2017-10-14T14:30:26.841Z,102440.52
2017-10-14T14:32:53.034Z,102441.83
2017-10-14T14:35:19.414Z,102437.89
2017-10-14T14:37:45.645Z,102436.11
2017-10-14T14:40:11.894Z,102441.82
2017-10-14T14:42:38.141Z,102431.30
2017-10-14T14:45:04.332Z,102436.98
2017-10-14T14:47:30.528Z,102435.69
2017-10-14T14:49:57.195Z,102437.01
2017-10-14T14:52:23.393Z,102435.70
2017-10-14T14:54:49.626Z,102437.44
2017-10-14T14:57:16.312Z,102440.10
2017-10-14T14:59:42.514Z,102443.61
2017-10-14T15:02:08.699Z,102438.77
2017-10-14T15:04:35.047Z,102440.10
2017-10-14T15:07:01.343Z,102441.83
2017-10-14T15:09:27.568Z,102441.85
2017-10-14T15:11:53.819Z,102444.05
2017-10-14T15:14:20.350Z,102430.01
2017-10-14T15:16:46.558Z,102444.04
2017-10-14T15:19:12.819Z,102438.34
2017-10-14T15:21:39.038Z,102437.91
2017-10-14T15:24:05.244Z,102435.74
2017-10-14T15:26:31.859Z,102444.05
2017-10-14T15:28:58.129Z,102434.41
2017-10-14T15:31:24.661Z,102439.67
2017-10-14T15:33:50.958Z,102437.05
2017-10-14T15:36:17.148Z,102436.16
2017-10-14T15:38:43.332Z,102447.58
2017-10-14T15:41:10.092Z,102441.01
2017-10-14T15:43:36.882Z,102440.12
2017-10-14T15:46:03.145Z,102440.56
2017-10-14T15:48:29.438Z,102441.88
2017-10-14T15:50:56.025Z,102441.44
2017-10-14T15:53:22.232Z,102438.38
2017-10-14T15:55:48.792Z,102434.43
2017-10-14T15:58:15.425Z,102439.27
2017-10-14T16:00:41.960Z,102433.56
2017-10-14T16:03:08.179Z,102437.51
2017-10-14T16:05:34.878Z,102432.70
2017-10-14T16:08:01.074Z,102440.57
2017-10-14T16:10:27.291Z,102441.48
2017-10-14T16:12:53.578Z,102449.36
2017-10-14T16:15:19.772Z,102443.22
2017-10-14T16:17:45.961Z,102445.88
2017-10-14T16:20:12.298Z,102446.73
2017-10-14T16:22:38.500Z,102444.09
2017-10-14T16:25:04.718Z,102446.31
2017-10-14T16:27:31.008Z,102442.35
2017-10-14T16:29:57.227Z,102437.53
2017-10-14T16:32:23.442Z,102441.47
2017-10-14T16:34:50.028Z,102440.61
2017-10-14T16:37:16.263Z,102439.73
2017-10-14T16:39:42.685Z,102441.05
2017-10-14T16:42:09.205Z,102438.85
2017-10-14T16:44:35.416Z,102443.23
2017-10-14T16:47:01.609Z,102441.48
2017-10-14T16:49:27.892Z,102442.36
2017-10-14T16:51:54.094Z,102445.45
2017-10-14T16:54:20.304Z,102452.45
2017-10-14T16:56:46.603Z,102457.27
2017-10-14T16:59:12.849Z,102455.95
2017-10-14T17:01:39.066Z,102453.33
2017-10-14T17:04:05.544Z,102455.95
2017-10-14T17:06:31.735Z,102450.72
2017-10-14T17:08:57.923Z,102452.48
2017-10-14T17:11:24.185Z,102454.20
2017-10-14T17:13:50.389Z,102454.64
2017-10-14T17:16:16.581Z,102459.91
2017-10-14T17:18:42.916Z,102456.42
2017-10-14T17:21:09.137Z,102457.72
2017-10-14T17:23:35.385Z,102459.50
2017-10-14T17:26:01.695Z,102459.92
2017-10-14T17:28:27.927Z,102468.67
2017-10-14T17:30:54.117Z,102469.13
2017-10-14T17:33:20.347Z,102467.81
2017-10-14T17:35:46.605Z,102469.58
2017-10-14T17:38:12.812Z,102470.00
2017-10-14T17:40:39.007Z,102472.20
2017-10-14T17:43:05.746Z,102473.06
2017-10-14T17:45:32.230Z,102475.70
2017-10-14T17:47:58.481Z,102484.05
2017-10-14T17:50:25.146Z,102482.31
2017-10-14T17:52:51.351Z,102485.36
2017-10-14T17:55:17.559Z,102492.37
2017-10-14T17:57:44.233Z,102496.31
2017-10-14T18:00:10.675Z,102496.77
2017-10-14T18:02:37.158Z,102502.02
2017-10-14T18:05:03.795Z,102492.83
2017-10-14T18:07:29.999Z,102498.50
2017-10-14T18:09:56.194Z,102501.13
2017-10-14T18:12:22.479Z,102496.77
2017-10-14T18:14:48.697Z,102500.72
2017-10-14T18:17:15.242Z,102505.97
2017-10-14T18:19:41.473Z,102499.84
2017-10-14T18:22:07.675Z,102510.38
2017-10-14T18:24:34.235Z,102507.28
2017-10-14T18:27:00.791Z,102505.97
2017-10-14T18:29:27.000Z,102513.01
2017-10-14T18:31:53.435Z,102505.09
2017-10-14T18:34:19.680Z,102501.15
2017-10-14T18:36:45.885Z,102508.17
2017-10-14T18:39:12.089Z,102512.56
2017-10-14T18:41:38.462Z,102513.45
2017-10-14T18:44:04.690Z,102513.01
2017-10-14T18:46:31.030Z,102518.71
2017-10-14T18:48:57.361Z,102523.98
2017-10-14T18:51:23.632Z,102520.45
2017-10-14T18:53:50.118Z,102522.66
2017-10-14T18:56:16.486Z,102517.38
2017-10-14T18:58:42.698Z,102516.49
2017-10-14T19:01:08.900Z,102523.95
2017-10-14T19:03:35.162Z,102519.58
2017-10-14T19:06:01.372Z,102520.01
2017-10-14T19:08:27.611Z,102524.84
2017-10-14T19:10:53.962Z,102521.77
2017-10-14T19:13:20.183Z,102524.40
2017-10-14T19:15:46.626Z,102521.34
2017-10-14T19:18:12.877Z,102520.88
2017-10-14T19:20:39.095Z,102518.27
2017-10-14T19:23:05.313Z,102517.81
2017-10-14T19:25:31.665Z,102516.94
2017-10-14T19:27:57.918Z,102517.38
2017-10-14T19:30:24.133Z,102518.71
2017-10-14T19:32:50.471Z,102520.88
2017-10-14T19:35:16.688Z,102512.55
2017-10-14T19:37:42.887Z,102507.28
2017-10-14T19:40:09.742Z,102512.13
2017-10-14T19:42:35.940Z,102509.93
2017-10-14T19:45:02.144Z,102504.67
2017-10-14T19:47:28.396Z,102502.91
2017-10-14T19:49:54.593Z,102505.09
2017-10-14T19:52:21.041Z,102502.91
2017-10-14T19:54:47.694Z,102505.11
2017-10-14T19:57:13.885Z,102509.91
2017-10-14T19:59:40.412Z,102508.60
2017-10-14T20:02:06.681Z,102512.13
2017-10-14T20:04:32.882Z,102509.91
2017-10-14T20:06:59.056Z,102504.66
2017-10-14T20:09:25.331Z,102501.58
2017-10-14T20:11:51.767Z,102503.78
2017-10-14T20:14:17.961Z,102502.48
2017-10-14T20:16:44.165Z,102500.27
2017-10-14T20:19:10.430Z,102500.72
2017-10-14T20:21:36.672Z,102502.04
2017-10-14T20:24:03.109Z,102494.58
2017-10-14T20:26:29.398Z,102498.54
2017-10-14T20:28:55.605Z,102491.94
2017-10-14T20:31:21.825Z,102493.69
2017-10-14T20:33:48.421Z,102494.59
2017-10-14T20:36:14.604Z,102495.91
2017-10-14T20:38:40.794Z,102493.26
2017-10-14T20:41:07.062Z,102495.02
2017-10-14T20:43:33.272Z,102492.81
2017-10-14T20:45:59.648Z,102489.73
2017-10-14T20:48:26.300Z,102488.02
2017-10-14T20:50:52.498Z,102493.70
2017-10-14T20:53:18.694Z,102492.81
2017-10-14T20:55:44.950Z,102489.76
2017-10-14T20:58:11.164Z,102490.19
2017-10-14T21:00:37.466Z,102480.99
2017-10-14T21:03:04.138Z,102477.48
2017-10-14T21:05:30.328Z,102476.17
2017-10-14T21:07:56.532Z,102468.72
2017-10-14T21:10:22.841Z,102473.13
2017-10-14T21:12:49.040Z,102478.38
2017-10-14T21:15:15.474Z,102472.66
2017-10-14T21:17:41.726Z,102475.75
2017-10-14T21:20:07.934Z,102480.55
2017-10-14T21:22:34.138Z,102482.33
2017-10-14T21:25:00.459Z,102484.09
2017-10-14T21:27:26.653Z,102491.09
2017-10-14T21:29:52.866Z,102502.06
2017-10-14T21:32:19.128Z,102504.27
2017-10-14T21:34:45.391Z,102507.75
2017-10-14T21:37:11.591Z,102506.88
2017-10-14T21:39:37.826Z,102515.66
2017-10-14T21:42:04.109Z,102516.53
2017-10-14T21:44:30.328Z,102522.67
2017-10-14T21:46:56.561Z,102522.67
2017-10-14T21:49:22.835Z,102525.75
2017-10-14T21:51:49.050Z,102526.19
2017-10-14T21:54:15.238Z,102528.38
2017-10-14T21:56:41.454Z,102527.06
2017-10-14T22:01:33.815Z,102516.53
2017-10-14T22:04:00.039Z,102515.21
2017-10-14T22:06:26.595Z,102509.97
2017-10-14T22:08:52.822Z,102509.08
2017-10-14T22:11:19.036Z,102511.75
2017-10-14T22:13:45.719Z,102510.86
2017-10-14T22:16:11.915Z,102503.86
2017-10-14T22:18:38.120Z,102506.91
2017-10-14T22:21:04.868Z,102511.30
2017-10-14T22:23:31.093Z,102510.42
2017-10-14T22:25:57.296Z,102511.30
2017-10-14T22:28:23.555Z,102513.06
2017-10-14T22:30:49.753Z,102517.89
2017-10-14T22:33:15.970Z,102515.27
2017-10-14T22:35:42.314Z,102518.31
2017-10-14T22:38:08.514Z,102520.08
2017-10-14T22:40:34.743Z,102516.56
2017-10-14T22:43:01.426Z,102514.81
2017-10-14T22:45:27.606Z,102516.58
2017-10-14T22:47:53.815Z,102513.94
2017-10-14T22:50:20.154Z,102523.16
2017-10-14T22:52:46.362Z,102521.39
2017-10-14T22:55:12.614Z,102526.22
2017-10-14T22:57:38.893Z,102519.64
2017-10-14T23:00:05.099Z,102523.59
2017-10-14T23:02:31.348Z,102527.11
2017-10-14T23:04:57.994Z,102531.03
2017-10-14T23:07:24.437Z,102531.92
2017-10-14T23:09:50.654Z,102533.23
2017-10-14T23:12:17.258Z,102527.09
2017-10-14T23:14:43.474Z,102529.30
2017-10-14T23:17:09.901Z,102527.53
2017-10-14T23:19:36.150Z,102528.87
2017-10-14T23:22:02.366Z,102528.42
2017-10-14T23:24:28.564Z,102535.02
2017-10-14T23:26:55.072Z,102533.25
2017-10-14T23:29:21.254Z,102531.48
2017-10-14T23:31:47.677Z,102530.16
2017-10-14T23:34:13.910Z,102523.59
2017-10-14T23:36:40.125Z,102519.20
2017-10-14T23:39:06.333Z,102524.02
2017-10-14T23:41:33.126Z,102514.39
2017-10-14T23:43:59.323Z,102514.83
2017-10-14T23:46:25.528Z,102513.05
2017-10-14T23:48:52.029Z,102505.63
2017-10-14T23:51:18.243Z,102505.16
2017-10-14T23:53:44.431Z,102509.55
2017-10-14T23:56:10.937Z,102501.22
2017-10-14T23:58:37.142Z,102503.41
